sensor_id;sensor_type;location;lat;lon;timestamp;pressure;altitude;pressure_sealevel;temperature;humidity
47366;BME280;33105;47.964;7.982;2024-02-15T00:01:12;97197.50;;;8.37;100.00
47366;BME280;33105;47.964;7.982;2024-02-15T00:04:13;97192.84;;;8.26;100.00
47366;BME280;33105;47.964;7.982;2024-02-15T00:07:14;97196.28;;;8.09;100.00
47366;BME280;33105;47.964;7.982;2024-02-15T00:10:15;97190.25;;;8.07;100.00
47366;BME280;33105;47.964;7.982;2024-02-15T00:13:16;97187.84;;;7.99;100.00
47366;BME280;33105;47.964;7.982;2024-02-15T00:16:18;97188.59;;;8.06;100.00
47366;BME280;33105;47.964;7.982;2024-02-15T00:19:19;97191.22;;;8.36;100.00
47366;BME280;33105;47.964;7.982;2024-02-15T00:22:20;97187.91;;;8.34;100.00
47366;BME280;33105;47.964;7.982;2024-02-15T00:25:22;97191.53;;;8.28;100.00
47366;BME280;33105;47.964;7.982;2024-02-15T00:28:23;97189.41;;;8.07;100.00
47366;BME280;33105;47.964;7.982;2024-02-15T00:31:24;97192.03;;;8.13;100.00
47366;BME280;33105;47.964;7.982;2024-02-15T00:34:26;97200.06;;;8.08;100.00
47366;BME280;33105;47.964;7.982;2024-02-15T00:37:27;97199.81;;;7.98;100.00
47366;BME280;33105;47.964;7.982;2024-02-15T00:40:28;97200.03;;;7.97;100.00
47366;BME280;33105;47.964;7.982;2024-02-15T00:43:34;97186.91;;;7.82;100.00
47366;BME280;33105;47.964;7.982;2024-02-15T00:46:36;97181.69;;;7.92;100.00
47366;BME280;33105;47.964;7.982;2024-02-15T00:49:37;97181.69;;;7.92;100.00
47366;BME280;33105;47.964;7.982;2024-02-15T00:52:38;97189.63;;;7.94;100.00
47366;BME280;33105;47.964;7.982;2024-02-15T00:55:40;97184.19;;;7.82;100.00
47366;BME280;33105;47.964;7.982;2024-02-15T00:58:41;97183.84;;;7.90;100.00
47366;BME280;33105;47.964;7.982;2024-02-15T01:01:42;97176.84;;;7.94;100.00
47366;BME280;33105;47.964;7.982;2024-02-15T01:04:43;97172.81;;;7.97;100.00
47366;BME280;33105;47.964;7.982;2024-02-15T01:07:47;97177.34;;;8.03;100.00
47366;BME280;33105;47.964;7.982;2024-02-15T01:10:49;97175.34;;;8.10;100.00
47366;BME280;33105;47.964;7.982;2024-02-15T01:13:51;97171.91;;;8.14;100.00
47366;BME280;33105;47.964;7.982;2024-02-15T01:16:53;97171.31;;;8.12;100.00
47366;BME280;33105;47.964;7.982;2024-02-15T01:19:55;97180.19;;;8.19;100.00
47366;BME280;33105;47.964;7.982;2024-02-15T01:22:56;97177.22;;;8.21;100.00
47366;BME280;33105;47.964;7.982;2024-02-15T01:25:57;97166.91;;;8.00;100.00
47366;BME280;33105;47.964;7.982;2024-02-15T01:28:59;97170.22;;;7.67;100.00
47366;BME280;33105;47.964;7.982;2024-02-15T01:32:01;97168.78;;;7.64;100.00
47366;BME280;33105;47.964;7.982;2024-02-15T01:35:03;97166.78;;;7.95;100.00
47366;BME280;33105;47.964;7.982;2024-02-15T01:38:07;97165.41;;;8.15;100.00
47366;BME280;33105;47.964;7.982;2024-02-15T01:41:09;97162.41;;;7.94;100.00
47366;BME280;33105;47.964;7.982;2024-02-15T01:44:10;97160.72;;;7.69;100.00
47366;BME280;33105;47.964;7.982;2024-02-15T01:47:12;97164.78;;;7.78;100.00
47366;BME280;33105;47.964;7.982;2024-02-15T01:50:16;97168.31;;;7.79;100.00
47366;BME280;33105;47.964;7.982;2024-02-15T01:53:18;97168.66;;;7.71;100.00
47366;BME280;33105;47.964;7.982;2024-02-15T01:56:19;97167.50;;;7.67;100.00
47366;BME280;33105;47.964;7.982;2024-02-15T01:59:22;97157.94;;;7.88;100.00
47366;BME280;33105;47.964;7.982;2024-02-15T02:02:25;97160.41;;;8.24;100.00
47366;BME280;33105;47.964;7.982;2024-02-15T02:05:30;97159.00;;;7.98;100.00
47366;BME280;33105;47.964;7.982;2024-02-15T02:08:33;97151.53;;;7.82;100.00
47366;BME280;33105;47.964;7.982;2024-02-15T02:11:34;97150.84;;;7.87;100.00
47366;BME280;33105;47.964;7.982;2024-02-15T02:14:35;97150.34;;;8.25;100.00
47366;BME280;33105;47.964;7.982;2024-02-15T02:17:36;97148.25;;;8.15;100.00
47366;BME280;33105;47.964;7.982;2024-02-15T02:20:38;97147.19;;;8.16;100.00
47366;BME280;33105;47.964;7.982;2024-02-15T02:23:40;97141.72;;;8.04;100.00
47366;BME280;33105;47.964;7.982;2024-02-15T02:26:41;97143.97;;;8.07;100.00
47366;BME280;33105;47.964;7.982;2024-02-15T02:29:43;97147.06;;;7.88;100.00
47366;BME280;33105;47.964;7.982;2024-02-15T02:32:47;97134.06;;;7.90;100.00
47366;BME280;33105;47.964;7.982;2024-02-15T02:35:49;97134.28;;;7.88;100.00
47366;BME280;33105;47.964;7.982;2024-02-15T02:38:50;97134.16;;;7.83;100.00
47366;BME280;33105;47.964;7.982;2024-02-15T02:41:51;97131.94;;;8.15;100.00
47366;BME280;33105;47.964;7.982;2024-02-15T02:44:52;97137.13;;;8.16;100.00
47366;BME280;33105;47.964;7.982;2024-02-15T02:47:54;97138.09;;;8.34;100.00
47366;BME280;33105;47.964;7.982;2024-02-15T02:50:55;97147.53;;;8.43;100.00
47366;BME280;33105;47.964;7.982;2024-02-15T02:53:56;97149.22;;;8.32;100.00
47366;BME280;33105;47.964;7.982;2024-02-15T02:56:57;97146.47;;;8.09;100.00
47366;BME280;33105;47.964;7.982;2024-02-15T02:59:59;97136.78;;;8.13;100.00
47366;BME280;33105;47.964;7.982;2024-02-15T03:03:00;97133.00;;;8.37;100.00
47366;BME280;33105;47.964;7.982;2024-02-15T03:06:01;97133.69;;;8.09;100.00
47366;BME280;33105;47.964;7.982;2024-02-15T03:09:02;97128.47;;;7.84;100.00
47366;BME280;33105;47.964;7.982;2024-02-15T03:12:07;97135.47;;;8.15;100.00
47366;BME280;33105;47.964;7.982;2024-02-15T03:15:10;97127.75;;;8.01;100.00
47366;BME280;33105;47.964;7.982;2024-02-15T03:18:15;97120.91;;;7.87;100.00
47366;BME280;33105;47.964;7.982;2024-02-15T03:21:17;97118.56;;;7.90;100.00
47366;BME280;33105;47.964;7.982;2024-02-15T03:24:18;97117.13;;;7.64;100.00
47366;BME280;33105;47.964;7.982;2024-02-15T03:27:20;97119.34;;;7.67;100.00
47366;BME280;33105;47.964;7.982;2024-02-15T03:30:25;97128.97;;;8.05;100.00
47366;BME280;33105;47.964;7.982;2024-02-15T03:33:26;97118.44;;;8.08;100.00
47366;BME280;33105;47.964;7.982;2024-02-15T03:36:33;97126.69;;;8.25;100.00
47366;BME280;33105;47.964;7.982;2024-02-15T03:39:34;97126.34;;;7.75;100.00
47366;BME280;33105;47.964;7.982;2024-02-15T03:42:36;97126.81;;;7.95;100.00
47366;BME280;33105;47.964;7.982;2024-02-15T03:45:40;97127.28;;;7.92;100.00
47366;BME280;33105;47.964;7.982;2024-02-15T03:48:43;97134.50;;;7.98;100.00
47366;BME280;33105;47.964;7.982;2024-02-15T03:51:47;97135.56;;;7.74;100.00
47366;BME280;33105;47.964;7.982;2024-02-15T03:54:50;97138.97;;;7.69;100.00
47366;BME280;33105;47.964;7.982;2024-02-15T03:57:51;97138.16;;;7.80;100.00
47366;BME280;33105;47.964;7.982;2024-02-15T04:00:53;97138.28;;;7.74;100.00
47366;BME280;33105;47.964;7.982;2024-02-15T04:03:56;97139.22;;;7.79;100.00
47366;BME280;33105;47.964;7.982;2024-02-15T04:06:57;97124.47;;;7.87;100.00
47366;BME280;33105;47.964;7.982;2024-02-15T04:09:59;97126.34;;;7.75;100.00
47366;BME280;33105;47.964;7.982;2024-02-15T04:13:01;97129.28;;;7.73;100.00
47366;BME280;33105;47.964;7.982;2024-02-15T04:16:03;97135.09;;;7.65;100.00
47366;BME280;33105;47.964;7.982;2024-02-15T04:19:05;97138.50;;;7.72;100.00
47366;BME280;33105;47.964;7.982;2024-02-15T04:22:06;97132.59;;;7.75;100.00
47366;BME280;33105;47.964;7.982;2024-02-15T04:25:11;97132.25;;;7.72;100.00
47366;BME280;33105;47.964;7.982;2024-02-15T04:28:17;97135.31;;;7.64;100.00
47366;BME280;33105;47.964;7.982;2024-02-15T04:31:18;97131.53;;;7.65;100.00
47366;BME280;33105;47.964;7.982;2024-02-15T04:34:20;97130.69;;;7.53;100.00
47366;BME280;33105;47.964;7.982;2024-02-15T04:37:21;97127.81;;;7.47;100.00
47366;BME280;33105;47.964;7.982;2024-02-15T04:40:22;97126.97;;;7.35;100.00
47366;BME280;33105;47.964;7.982;2024-02-15T04:43:23;97123.09;;;7.43;100.00
47366;BME280;33105;47.964;7.982;2024-02-15T04:46:24;97112.47;;;7.53;100.00
47366;BME280;33105;47.964;7.982;2024-02-15T04:49:26;97113.53;;;7.40;100.00
47366;BME280;33105;47.964;7.982;2024-02-15T04:52:29;97107.97;;;7.47;100.00
47366;BME280;33105;47.964;7.982;2024-02-15T04:55:31;97111.88;;;7.39;100.00
47366;BME280;33105;47.964;7.982;2024-02-15T04:58:33;97099.44;;;7.43;100.00
47366;BME280;33105;47.964;7.982;2024-02-15T05:01:37;97107.03;;;7.41;100.00
47366;BME280;33105;47.964;7.982;2024-02-15T05:04:38;97101.19;;;7.26;100.00
47366;BME280;33105;47.964;7.982;2024-02-15T05:07:43;97102.38;;;7.30;100.00
47366;BME280;33105;47.964;7.982;2024-02-15T05:10:44;97088.28;;;7.22;100.00
47366;BME280;33105;47.964;7.982;2024-02-15T05:13:46;97087.53;;;7.03;100.00
47366;BME280;33105;47.964;7.982;2024-02-15T05:16:49;97087.47;;;7.21;100.00
47366;BME280;33105;47.964;7.982;2024-02-15T05:19:50;97087.31;;;7.04;100.00
47366;BME280;33105;47.964;7.982;2024-02-15T05:22:51;97085.78;;;7.08;100.00
47366;BME280;33105;47.964;7.982;2024-02-15T05:25:52;97093.38;;;7.18;100.00
47366;BME280;33105;47.964;7.982;2024-02-15T05:28:55;97086.63;;;7.21;100.00
47366;BME280;33105;47.964;7.982;2024-02-15T05:31:56;97081.38;;;6.96;100.00
47366;BME280;33105;47.964;7.982;2024-02-15T05:34:57;97084.59;;;7.04;100.00
47366;BME280;33105;47.964;7.982;2024-02-15T05:37:58;97087.84;;;7.25;100.00
47366;BME280;33105;47.964;7.982;2024-02-15T05:41:00;97077.78;;;7.25;100.00
47366;BME280;33105;47.964;7.982;2024-02-15T05:44:02;97077.44;;;7.22;100.00
47366;BME280;33105;47.964;7.982;2024-02-15T05:47:07;97087.75;;;7.31;100.00
47366;BME280;33105;47.964;7.982;2024-02-15T05:50:08;97064.44;;;7.24;100.00
47366;BME280;33105;47.964;7.982;2024-02-15T05:53:10;97071.06;;;7.28;100.00
47366;BME280;33105;47.964;7.982;2024-02-15T05:56:11;97069.41;;;7.27;100.00
47366;BME280;33105;47.964;7.982;2024-02-15T05:59:13;97074.25;;;7.25;100.00
47366;BME280;33105;47.964;7.982;2024-02-15T06:02:16;97072.00;;;7.22;100.00
47366;BME280;33105;47.964;7.982;2024-02-15T06:05:18;97073.78;;;7.28;100.00
47366;BME280;33105;47.964;7.982;2024-02-15T06:08:20;97065.25;;;7.24;100.00
47366;BME280;33105;47.964;7.982;2024-02-15T06:11:23;97063.59;;;7.23;100.00
47366;BME280;33105;47.964;7.982;2024-02-15T06:14:25;97058.91;;;7.30;100.00
47366;BME280;33105;47.964;7.982;2024-02-15T06:17:26;97054.44;;;7.36;99.78
47366;BME280;33105;47.964;7.982;2024-02-15T06:20:27;97049.69;;;7.31;100.00
47366;BME280;33105;47.964;7.982;2024-02-15T06:23:31;97053.38;;;7.37;99.47
47366;BME280;33105;47.964;7.982;2024-02-15T06:26:34;97049.81;;;7.36;100.00
47366;BME280;33105;47.964;7.982;2024-02-15T06:29:35;97052.06;;;7.39;99.50
47366;BME280;33105;47.964;7.982;2024-02-15T06:32:55;97047.44;;;7.28;100.00
47366;BME280;33105;47.964;7.982;2024-02-15T06:36:15;97051.72;;;7.36;99.83
47366;BME280;33105;47.964;7.982;2024-02-15T06:39:34;97049.72;;;7.55;99.24
47366;BME280;33105;47.964;7.982;2024-02-15T06:42:42;97051.38;;;7.56;99.35
47366;BME280;33105;47.964;7.982;2024-02-15T06:45:43;97050.06;;;7.46;99.20
47366;BME280;33105;47.964;7.982;2024-02-15T06:48:47;97046.16;;;7.42;99.75
47366;BME280;33105;47.964;7.982;2024-02-15T06:51:48;97039.09;;;7.65;98.55
47366;BME280;33105;47.964;7.982;2024-02-15T06:54:49;97042.16;;;7.80;98.59
47366;BME280;33105;47.964;7.982;2024-02-15T06:57:52;97041.81;;;7.88;97.26
47366;BME280;33105;47.964;7.982;2024-02-15T07:00:53;97033.72;;;7.93;97.03
47366;BME280;33105;47.964;7.982;2024-02-15T07:03:54;97030.69;;;7.90;97.79
47366;BME280;33105;47.964;7.982;2024-02-15T07:06:56;97039.31;;;7.75;98.45
47366;BME280;33105;47.964;7.982;2024-02-15T07:09:58;97033.38;;;8.01;96.60
47366;BME280;33105;47.964;7.982;2024-02-15T07:12:59;97022.97;;;7.98;97.12
47366;BME280;33105;47.964;7.982;2024-02-15T07:16:01;97015.34;;;8.24;94.94
47366;BME280;33105;47.964;7.982;2024-02-15T07:19:02;97008.53;;;8.09;95.88
47366;BME280;33105;47.964;7.982;2024-02-15T07:22:04;97007.28;;;8.29;94.85
47366;BME280;33105;47.964;7.982;2024-02-15T07:25:05;97015.94;;;8.26;94.87
47366;BME280;33105;47.964;7.982;2024-02-15T07:28:06;97006.16;;;8.13;97.32
47366;BME280;33105;47.964;7.982;2024-02-15T07:31:09;97002.72;;;8.06;97.11
47366;BME280;33105;47.964;7.982;2024-02-15T07:34:10;97003.16;;;8.38;96.03
47366;BME280;33105;47.964;7.982;2024-02-15T07:37:12;97005.78;;;8.61;94.17
47366;BME280;33105;47.964;7.982;2024-02-15T07:40:13;97002.47;;;8.59;95.58
47366;BME280;33105;47.964;7.982;2024-02-15T07:43:15;96994.97;;;8.66;94.15
47366;BME280;33105;47.964;7.982;2024-02-15T07:46:16;96993.81;;;8.91;92.54
47366;BME280;33105;47.964;7.982;2024-02-15T07:49:18;96993.81;;;8.91;92.11
47366;BME280;33105;47.964;7.982;2024-02-15T07:52:19;96992.66;;;9.03;91.88
47366;BME280;33105;47.964;7.982;2024-02-15T07:55:20;96991.47;;;9.16;90.52
47366;BME280;33105;47.964;7.982;2024-02-15T07:58:21;96978.44;;;9.18;90.33
47366;BME280;33105;47.964;7.982;2024-02-15T08:01:23;96976.47;;;9.30;89.69
47366;BME280;33105;47.964;7.982;2024-02-15T08:04:24;96980.66;;;9.21;90.38
47366;BME280;33105;47.964;7.982;2024-02-15T08:07:26;96977.75;;;8.94;93.96
47366;BME280;33105;47.964;7.982;2024-02-15T08:10:32;96976.69;;;8.95;93.31
47366;BME280;33105;47.964;7.982;2024-02-15T08:13:34;96980.91;;;9.03;92.72
47366;BME280;33105;47.964;7.982;2024-02-15T08:16:37;96992.50;;;9.10;94.70
47366;BME280;33105;47.964;7.982;2024-02-15T08:19:42;96986.03;;;9.16;95.21
47366;BME280;33105;47.964;7.982;2024-02-15T08:22:43;96992.81;;;9.47;92.27
47366;BME280;33105;47.964;7.982;2024-02-15T08:25:44;96983.88;;;9.51;91.26
47366;BME280;33105;47.964;7.982;2024-02-15T08:28:45;96986.53;;;9.46;91.91
47366;BME280;33105;47.964;7.982;2024-02-15T08:31:46;96981.84;;;9.25;94.90
47366;BME280;33105;47.964;7.982;2024-02-15T08:34:49;96978.78;;;9.38;95.34
47366;BME280;33105;47.964;7.982;2024-02-15T08:37:51;96973.09;;;9.40;95.39
47366;BME280;33105;47.964;7.982;2024-02-15T08:40:54;96954.03;;;9.62;92.72
47366;BME280;33105;47.964;7.982;2024-02-15T08:43:55;96959.28;;;9.85;90.41
47366;BME280;33105;47.964;7.982;2024-02-15T08:46:59;96946.84;;;9.94;89.08
47366;BME280;33105;47.964;7.982;2024-02-15T08:50:00;96951.00;;;9.58;92.74
47366;BME280;33105;47.964;7.982;2024-02-15T08:53:02;96950.25;;;9.63;93.01
47366;BME280;33105;47.964;7.982;2024-02-15T08:56:07;96943.56;;;9.53;94.36
47366;BME280;33105;47.964;7.982;2024-02-15T08:59:11;96940.28;;;9.73;94.81
47366;BME280;33105;47.964;7.982;2024-02-15T09:02:12;96934.56;;;10.18;90.00
47366;BME280;33105;47.964;7.982;2024-02-15T09:05:16;96928.03;;;10.41;88.92
47366;BME280;33105;47.964;7.982;2024-02-15T09:08:18;96936.91;;;10.80;85.92
47366;BME280;33105;47.964;7.982;2024-02-15T09:11:28;96922.88;;;10.72;87.83
47366;BME280;33105;47.964;7.982;2024-02-15T09:14:29;96920.94;;;10.67;88.62
47366;BME280;33105;47.964;7.982;2024-02-15T09:17:31;96910.38;;;11.08;85.14
47366;BME280;33105;47.964;7.982;2024-02-15T09:20:33;96904.66;;;11.09;84.84
47366;BME280;33105;47.964;7.982;2024-02-15T09:23:35;96895.94;;;11.17;86.01
47366;BME280;33105;47.964;7.982;2024-02-15T09:26:42;96891.69;;;11.32;85.18
47366;BME280;33105;47.964;7.982;2024-02-15T09:29:49;96890.94;;;11.46;83.91
47366;BME280;33105;47.964;7.982;2024-02-15T09:32:51;96893.25;;;11.22;88.97
47366;BME280;33105;47.964;7.982;2024-02-15T09:35:53;96889.06;;;11.52;85.92
47366;BME280;33105;47.964;7.982;2024-02-15T09:39:01;96878.75;;;11.69;85.94
47366;BME280;33105;47.964;7.982;2024-02-15T09:42:03;96870.66;;;11.42;88.14
47366;BME280;33105;47.964;7.982;2024-02-15T09:45:08;96868.34;;;11.61;87.82
47366;BME280;33105;47.964;7.982;2024-02-15T09:48:16;96863.94;;;11.60;90.99
47366;BME280;33105;47.964;7.982;2024-02-15T09:51:22;96861.63;;;11.84;87.37
47366;BME280;33105;47.964;7.982;2024-02-15T09:54:25;96873.53;;;11.68;91.61
47366;BME280;33105;47.964;7.982;2024-02-15T09:57:27;96873.28;;;11.69;93.05
47366;BME280;33105;47.964;7.982;2024-02-15T10:00:35;96870.66;;;11.42;89.98
47366;BME280;33105;47.964;7.982;2024-02-15T10:03:37;96865.53;;;11.51;91.50
47366;BME280;33105;47.964;7.982;2024-02-15T10:06:44;96857.06;;;11.52;87.63
47366;BME280;33105;47.964;7.982;2024-02-15T10:09:46;96866.91;;;11.53;88.22
47366;BME280;33105;47.964;7.982;2024-02-15T10:12:52;96860.88;;;12.04;88.38
47366;BME280;33105;47.964;7.982;2024-02-15T10:15:59;96853.84;;;12.38;87.53
47366;BME280;33105;47.964;7.982;2024-02-15T10:19:27;96853.78;;;12.18;84.14
47366;BME280;33105;47.964;7.982;2024-02-15T10:22:44;96846.44;;;12.39;83.95
47366;BME280;33105;47.964;7.982;2024-02-15T10:26:24;96846.75;;;12.68;85.99
47366;BME280;33105;47.964;7.982;2024-02-15T10:34:27;96834.97;;;13.33;82.67
47366;BME280;33105;47.964;7.982;2024-02-15T10:43:53;96827.84;;;13.27;80.35
47366;BME280;33105;47.964;7.982;2024-02-15T10:47:58;96840.19;;;13.04;79.93
47366;BME280;33105;47.964;7.982;2024-02-15T10:52:00;96816.81;;;13.42;78.57
47366;BME280;33105;47.964;7.982;2024-02-15T10:59:35;96803.41;;;13.36;79.42
47366;BME280;33105;47.964;7.982;2024-02-15T11:07:10;96804.72;;;13.58;77.93
47366;BME280;33105;47.964;7.982;2024-02-15T11:10:13;96802.34;;;13.96;79.46
47366;BME280;33105;47.964;7.982;2024-02-15T11:13:44;96802.63;;;14.44;78.00
47366;BME280;33105;47.964;7.982;2024-02-15T11:17:09;96793.13;;;14.65;77.62
47366;BME280;33105;47.964;7.982;2024-02-15T11:24:26;96796.91;;;14.35;79.49
47366;BME280;33105;47.964;7.982;2024-02-15T11:36:35;96780.69;;;14.34;75.35
47366;BME280;33105;47.964;7.982;2024-02-15T11:39:40;96776.06;;;14.68;75.78
47366;BME280;33105;47.964;7.982;2024-02-15T11:42:47;96768.72;;;14.58;75.08
47366;BME280;33105;47.964;7.982;2024-02-15T11:46:02;96760.22;;;14.55;75.67
47366;BME280;33105;47.964;7.982;2024-02-15T11:49:04;96762.63;;;14.61;74.32
47366;BME280;33105;47.964;7.982;2024-02-15T11:52:13;96748.22;;;14.75;73.70
47366;BME280;33105;47.964;7.982;2024-02-15T11:55:19;96737.00;;;14.71;73.57
47366;BME280;33105;47.964;7.982;2024-02-15T11:58:22;96725.94;;;14.76;72.65
47366;BME280;33105;47.964;7.982;2024-02-15T12:01:59;96726.81;;;15.01;73.36
47366;BME280;33105;47.964;7.982;2024-02-15T12:05:20;96735.31;;;15.28;72.44
47366;BME280;33105;47.964;7.982;2024-02-15T12:12:35;96724.13;;;15.43;69.38
47366;BME280;33105;47.964;7.982;2024-02-15T12:16:15;96717.22;;;15.70;68.07
47366;BME280;33105;47.964;7.982;2024-02-15T12:20:03;96712.09;;;15.82;67.96
47366;BME280;33105;47.964;7.982;2024-02-15T12:23:21;96714.91;;;15.58;68.83
47366;BME280;33105;47.964;7.982;2024-02-15T12:27:09;96703.56;;;15.36;71.05
47366;BME280;33105;47.964;7.982;2024-02-15T12:30:18;96697.91;;;15.27;73.43
47366;BME280;33105;47.964;7.982;2024-02-15T12:33:29;96701.53;;;15.22;74.19
47366;BME280;33105;47.964;7.982;2024-02-15T12:41:21;96677.75;;;15.08;72.18
47366;BME280;33105;47.964;7.982;2024-02-15T12:44:26;96680.00;;;15.06;72.49
47366;BME280;33105;47.964;7.982;2024-02-15T12:47:31;96677.56;;;15.23;73.72
47366;BME280;33105;47.964;7.982;2024-02-15T12:51:51;96682.50;;;15.26;71.91
47366;BME280;33105;47.964;7.982;2024-02-15T12:54:25;96687.66;;;15.32;73.73
47366;BME280;33105;47.964;7.982;2024-02-15T12:57:29;96687.06;;;15.12;72.30
47366;BME280;33105;47.964;7.982;2024-02-15T13:00:31;96681.16;;;15.00;75.22
47366;BME280;33105;47.964;7.982;2024-02-15T13:03:34;96681.09;;;14.81;74.73
47366;BME280;33105;47.964;7.982;2024-02-15T13:07:01;96671.88;;;14.90;75.04
47366;BME280;33105;47.964;7.982;2024-02-15T13:10:03;96668.06;;;14.86;75.72
47366;BME280;33105;47.964;7.982;2024-02-15T13:13:08;96666.50;;;14.80;76.32
47366;BME280;33105;47.964;7.982;2024-02-15T13:17:31;96673.69;;;14.76;77.10
47366;BME280;33105;47.964;7.982;2024-02-15T13:20:54;96679.59;;;14.88;75.54
47366;BME280;33105;47.964;7.982;2024-02-15T13:24:52;96667.50;;;14.60;75.23
47366;BME280;33105;47.964;7.982;2024-02-15T13:27:53;96673.75;;;14.71;77.78
47366;BME280;33105;47.964;7.982;2024-02-15T13:31:03;96671.00;;;14.42;78.00
47366;BME280;33105;47.964;7.982;2024-02-15T13:34:04;96661.78;;;14.57;79.32
47366;BME280;33105;47.964;7.982;2024-02-15T13:37:06;96660.78;;;14.48;78.84
47366;BME280;33105;47.964;7.982;2024-02-15T13:40:16;96658.75;;;14.58;77.76
47366;BME280;33105;47.964;7.982;2024-02-15T13:43:21;96658.03;;;14.48;76.34
47366;BME280;33105;47.964;7.982;2024-02-15T13:46:37;96646.50;;;14.46;77.35
47366;BME280;33105;47.964;7.982;2024-02-15T13:49:40;96643.34;;;14.28;78.37
47366;BME280;33105;47.964;7.982;2024-02-15T13:53:31;96629.41;;;14.15;78.18
47366;BME280;33105;47.964;7.982;2024-02-15T13:56:33;96624.19;;;14.18;80.07
47366;BME280;33105;47.964;7.982;2024-02-15T13:59:42;96623.09;;;14.14;77.46
47366;BME280;33105;47.964;7.982;2024-02-15T14:02:56;96622.75;;;14.26;78.22
47366;BME280;33105;47.964;7.982;2024-02-15T14:05:58;96608.88;;;14.41;77.33
47366;BME280;33105;47.964;7.982;2024-02-15T14:09:00;96601.41;;;14.47;78.82
47366;BME280;33105;47.964;7.982;2024-02-15T14:12:02;96594.81;;;14.48;79.27
47366;BME280;33105;47.964;7.982;2024-02-15T14:15:07;96587.56;;;14.57;80.74
47366;BME280;33105;47.964;7.982;2024-02-15T14:18:16;96577.59;;;14.61;80.36
47366;BME280;33105;47.964;7.982;2024-02-15T14:21:19;96580.16;;;14.57;80.58
47366;BME280;33105;47.964;7.982;2024-02-15T14:24:21;96576.38;;;14.48;78.47
47366;BME280;33105;47.964;7.982;2024-02-15T14:27:24;96570.84;;;14.53;80.22
47366;BME280;33105;47.964;7.982;2024-02-15T14:30:26;96569.78;;;14.49;80.57
47366;BME280;33105;47.964;7.982;2024-02-15T14:33:47;96565.06;;;14.55;83.16
47366;BME280;33105;47.964;7.982;2024-02-15T14:37:55;96560.50;;;14.88;77.58
47366;BME280;33105;47.964;7.982;2024-02-15T14:41:00;96557.13;;;14.72;81.34
47366;BME280;33105;47.964;7.982;2024-02-15T14:44:05;96554.69;;;14.71;82.02
47366;BME280;33105;47.964;7.982;2024-02-15T14:47:15;96552.00;;;14.66;80.98
47366;BME280;33105;47.964;7.982;2024-02-15T14:50:19;96551.75;;;14.62;81.69
47366;BME280;33105;47.964;7.982;2024-02-15T14:53:24;96547.97;;;14.58;82.88
47366;BME280;33105;47.964;7.982;2024-02-15T14:56:34;96543.34;;;14.53;83.66
47366;BME280;33105;47.964;7.982;2024-02-15T14:59:36;96546.91;;;14.54;82.70
47366;BME280;33105;47.964;7.982;2024-02-15T15:02:40;96551.94;;;14.47;81.62
47366;BME280;33105;47.964;7.982;2024-02-15T15:05:54;96551.34;;;14.50;83.04
47366;BME280;33105;47.964;7.982;2024-02-15T15:09:14;96547.53;;;14.46;84.69
47366;BME280;33105;47.964;7.982;2024-02-15T15:12:34;96547.84;;;14.39;84.58
47366;BME280;33105;47.964;7.982;2024-02-15T15:15:40;96548.13;;;14.43;85.31
47366;BME280;33105;47.964;7.982;2024-02-15T15:18:42;96554.78;;;14.60;84.19
47366;BME280;33105;47.964;7.982;2024-02-15T15:22:03;96556.84;;;14.50;84.31
47366;BME280;33105;47.964;7.982;2024-02-15T15:25:06;96561.44;;;14.30;85.75
47366;BME280;33105;47.964;7.982;2024-02-15T15:28:28;96557.16;;;14.14;87.20
47366;BME280;33105;47.964;7.982;2024-02-15T15:31:30;96573.78;;;14.04;88.45
47366;BME280;33105;47.964;7.982;2024-02-15T15:34:32;96568.56;;;14.03;89.33
47366;BME280;33105;47.964;7.982;2024-02-15T15:37:36;96564.59;;;14.14;88.69
47366;BME280;33105;47.964;7.982;2024-02-15T15:40:54;96563.97;;;13.93;88.73
47366;BME280;33105;47.964;7.982;2024-02-15T15:43:58;96562.38;;;13.87;88.13
47366;BME280;33105;47.964;7.982;2024-02-15T15:51:33;96564.25;;;13.57;87.02
47366;BME280;33105;47.964;7.982;2024-02-15T15:54:35;96570.38;;;13.44;87.44
47366;BME280;33105;47.964;7.982;2024-02-15T15:57:38;96568.81;;;13.33;87.53
47366;BME280;33105;47.964;7.982;2024-02-15T16:01:24;96571.06;;;13.21;88.64
47366;BME280;33105;47.964;7.982;2024-02-15T16:04:34;96574.16;;;13.09;87.20
47366;BME280;33105;47.964;7.982;2024-02-15T16:07:36;96569.47;;;13.10;88.82
47366;BME280;33105;47.964;7.982;2024-02-15T16:10:39;96560.94;;;13.21;89.36
47366;BME280;33105;47.964;7.982;2024-02-15T16:14:03;96568.34;;;13.16;90.15
47366;BME280;33105;47.964;7.982;2024-02-15T16:17:06;96561.28;;;13.05;89.84
47366;BME280;33105;47.964;7.982;2024-02-15T16:20:50;96558.28;;;12.96;90.13
47366;BME280;33105;47.964;7.982;2024-02-15T16:23:55;96557.22;;;12.92;91.38
47366;BME280;33105;47.964;7.982;2024-02-15T16:26:56;96557.53;;;12.85;91.58
47366;BME280;33105;47.964;7.982;2024-02-15T16:29:58;96555.38;;;12.77;91.23
47366;BME280;33105;47.964;7.982;2024-02-15T16:33:03;96549.06;;;12.77;92.84
47366;BME280;33105;47.964;7.982;2024-02-15T16:36:05;96551.53;;;12.73;92.68
47366;BME280;33105;47.964;7.982;2024-02-15T16:39:08;96552.38;;;12.69;93.75
47366;BME280;33105;47.964;7.982;2024-02-15T16:42:09;96553.81;;;12.61;94.49
47366;BME280;33105;47.964;7.982;2024-02-15T16:45:16;96553.53;;;12.52;95.16
47366;BME280;33105;47.964;7.982;2024-02-15T16:48:22;96551.38;;;12.44;95.70
47366;BME280;33105;47.964;7.982;2024-02-15T16:51:23;96554.69;;;12.36;95.86
47366;BME280;33105;47.964;7.982;2024-02-15T16:54:26;96549.50;;;12.30;95.93
47366;BME280;33105;47.964;7.982;2024-02-15T16:57:41;96553.34;;;12.29;96.49
47366;BME280;33105;47.964;7.982;2024-02-15T17:00:43;96561.56;;;12.23;97.11
47366;BME280;33105;47.964;7.982;2024-02-15T17:03:52;96552.56;;;12.08;97.90
47366;BME280;33105;47.964;7.982;2024-02-15T17:06:57;96565.97;;;12.09;98.47
47366;BME280;33105;47.964;7.982;2024-02-15T17:10:00;96568.72;;;12.09;99.31
47366;BME280;33105;47.964;7.982;2024-02-15T17:13:07;96572.56;;;12.03;99.73
47366;BME280;33105;47.964;7.982;2024-02-15T17:16:24;96570.09;;;12.12;98.12